N56Y L18-KCRQ
Flight info
| Callsign | N56Y |
|---|---|
| Flight time | N/A |
| Altitude | 25 |
| Route | OCN |
| Aircraft | C172/L-VGD/C |
Departure
| Time | 2026-04-24 01:47 |
|---|---|
| Airport | Fallbrook Community Airpark (L18) |
Arrival
| Time | N/A |
|---|---|
| Airport | McClellan-Palomar Airport (KCRQ) |
| Time | Latitude | Longitude | Altitude | Speed | Heading |
|---|---|---|---|---|---|
| 2026-04-24 01:41 | 33.35562 | -117.25217 | 676 ft | 0 kts | 7° |
| 2026-04-24 01:45 | 33.35563 | -117.25217 | 676 ft | 3 kts | 8° |
| 2026-04-24 01:45 | 33.35681 | -117.25204 | 679 ft | 16 kts | 25° |
| 2026-04-24 01:46 | 33.35667 | -117.25073 | 708 ft | 23 kts | 105° |
| 2026-04-24 01:46 | 33.35701 | -117.24994 | 716 ft | 3 kts | 35° |
| 2026-04-24 01:46 | 33.35711 | -117.24959 | 717 ft | 0 kts | 191° |
| 2026-04-24 01:47 | 33.35706 | -117.24960 | 716 ft | 10 kts | 190° |
| 2026-04-24 01:47 | 33.35397 | -117.25050 | 749 ft | 74 kts | 193° |
| 2026-04-24 01:47 | 33.34815 | -117.25189 | 1090 ft | 95 kts | 194° |
| 2026-04-24 01:47 | 33.34122 | -117.25156 | 1581 ft | 106 kts | 169° |
| 2026-04-24 01:48 | 33.33382 | -117.25009 | 2148 ft | 110 kts | 175° |
| 2026-04-24 01:48 | 33.32618 | -117.24867 | 2735 ft | 112 kts | 174° |
| 2026-04-24 01:48 | 33.31845 | -117.24723 | 3339 ft | 113 kts | 173° |
| 2026-04-24 01:48 | 33.31064 | -117.24578 | 3925 ft | 119 kts | 173° |
| 2026-04-24 01:49 | 33.30072 | -117.24399 | 3998 ft | 170 kts | 172° |
| 2026-04-24 01:49 | 33.28782 | -117.24163 | 4002 ft | 206 kts | 172° |
| 2026-04-24 01:49 | 33.27294 | -117.23885 | 3997 ft | 226 kts | 172° |
| 2026-04-24 01:49 | 33.25702 | -117.23586 | 3994 ft | 236 kts | 172° |
| 2026-04-24 01:50 | 33.24063 | -117.23254 | 3992 ft | 241 kts | 171° |
| 2026-04-24 01:50 | 33.22398 | -117.23339 | 3992 ft | 243 kts | 198° |
| 2026-04-24 01:50 | 33.21009 | -117.24449 | 3990 ft | 244 kts | 230° |
| 2026-04-24 01:50 | 33.20311 | -117.26275 | 3990 ft | 246 kts | 261° |
| 2026-04-24 01:51 | 33.20374 | -117.28309 | 3989 ft | 246 kts | 277° |
| 2026-04-24 01:51 | 33.20591 | -117.30330 | 3987 ft | 245 kts | 268° |
| 2026-04-24 01:51 | 33.20491 | -117.32360 | 3990 ft | 245 kts | 269° |
| 2026-04-24 01:51 | 33.20642 | -117.34386 | 3988 ft | 246 kts | 279° |
| 2026-04-24 01:52 | 33.21084 | -117.36364 | 3990 ft | 246 kts | 289° |
| 2026-04-24 01:52 | 33.21693 | -117.38276 | 3988 ft | 247 kts | 288° |
| 2026-04-24 01:52 | 33.22213 | -117.40229 | 3989 ft | 247 kts | 287° |
| 2026-04-24 01:52 | 33.22693 | -117.42189 | 3987 ft | 246 kts | 276° |
| 2026-04-24 01:53 | 33.22438 | -117.44157 | 3978 ft | 246 kts | 245° |
| 2026-04-24 01:53 | 33.21335 | -117.45684 | 3973 ft | 246 kts | 214° |
| 2026-04-24 01:53 | 33.19706 | -117.46302 | 3973 ft | 247 kts | 183° |
| 2026-04-24 01:53 | 33.18017 | -117.45930 | 3974 ft | 249 kts | 160° |
| 2026-04-24 01:54 | 33.16588 | -117.44775 | 3976 ft | 251 kts | 134° |
| 2026-04-24 01:54 | 33.15728 | -117.43002 | 3975 ft | 253 kts | 107° |
| 2026-04-24 01:54 | 33.15395 | -117.40942 | 3980 ft | 253 kts | 98° |
| 2026-04-24 01:54 | 33.15139 | -117.38865 | 3982 ft | 253 kts | 101° |
| 2026-04-24 01:55 | 33.14741 | -117.36823 | 3983 ft | 252 kts | 102° |
| 2026-04-24 01:55 | 33.14634 | -117.34742 | 3980 ft | 253 kts | 84° |
| 2026-04-24 01:55 | 33.15140 | -117.32747 | 3977 ft | 253 kts | 59° |
| 2026-04-24 01:55 | 33.16400 | -117.31312 | 3969 ft | 253 kts | 28° |
| 2026-04-24 01:56 | 33.18064 | -117.30657 | 3976 ft | 252 kts | 12° |
| 2026-04-24 01:56 | 33.19783 | -117.30257 | 3977 ft | 252 kts | 9° |
| 2026-04-24 01:56 | 33.21507 | -117.29878 | 3982 ft | 252 kts | 10° |
| 2026-04-24 01:56 | 33.23182 | -117.29282 | 3974 ft | 253 kts | 30° |
| 2026-04-24 01:57 | 33.24331 | -117.27734 | 3969 ft | 253 kts | 64° |
| 2026-04-24 01:57 | 33.24944 | -117.25764 | 3978 ft | 253 kts | 73° |
| 2026-04-24 01:57 | 33.25463 | -117.23755 | 3980 ft | 253 kts | 73° |
| 2026-04-24 01:57 | 33.25995 | -117.21748 | 3978 ft | 253 kts | 72° |
| 2026-04-24 01:58 | 33.26545 | -117.19774 | 3991 ft | 253 kts | 72° |
| 2026-04-24 01:58 | 33.27120 | -117.17775 | 3988 ft | 253 kts | 71° |
| 2026-04-24 01:58 | 33.27701 | -117.15787 | 3986 ft | 254 kts | 71° |
| 2026-04-24 01:58 | 33.28273 | -117.13792 | 3982 ft | 253 kts | 75° |
| 2026-04-24 01:59 | 33.28489 | -117.11718 | 3979 ft | 252 kts | 96° |
| 2026-04-24 01:59 | 33.27878 | -117.09796 | 3970 ft | 249 kts | 127° |
| 2026-04-24 01:59 | 33.26541 | -117.08530 | 3975 ft | 246 kts | 155° |
| 2026-04-24 01:59 | 33.24951 | -117.07784 | 3978 ft | 245 kts | 162° |
| 2026-04-24 02:00 | 33.23334 | -117.07136 | 3980 ft | 245 kts | 162° |
| 2026-04-24 02:00 | 33.21716 | -117.06480 | 4007 ft | 245 kts | 162° |
| 2026-04-24 02:00 | 33.20096 | -117.05806 | 3951 ft | 248 kts | 161° |
| 2026-04-24 02:00 | 33.18447 | -117.05116 | 3707 ft | 254 kts | 161° |
| 2026-04-24 02:01 | 33.16770 | -117.04432 | 3594 ft | 253 kts | 162° |
| 2026-04-24 02:01 | 33.15077 | -117.03959 | 3593 ft | 248 kts | 175° |
| 2026-04-24 02:01 | 33.13408 | -117.04324 | 3586 ft | 246 kts | 206° |
| 2026-04-24 02:01 | 33.12172 | -117.05693 | 3582 ft | 246 kts | 238° |
| 2026-04-24 02:02 | 33.11509 | -117.07571 | 3592 ft | 246 kts | 251° |
| 2026-04-24 02:02 | 33.11072 | -117.09514 | 3589 ft | 246 kts | 261° |
| 2026-04-24 02:02 | 33.11174 | -117.11548 | 3586 ft | 246 kts | 279° |
| 2026-04-24 02:02 | 33.11548 | -117.13543 | 3592 ft | 247 kts | 283° |
| 2026-04-24 02:03 | 33.12334 | -117.17536 | 3597 ft | 247 kts | 282° |
| 2026-04-24 02:03 | 33.12704 | -117.19536 | 3604 ft | 247 kts | 281° |
| 2026-04-24 02:03 | 33.13066 | -117.21542 | 3597 ft | 247 kts | 281° |
| 2026-04-24 02:04 | 33.13420 | -117.23542 | 3595 ft | 246 kts | 281° |
| 2026-04-24 02:04 | 33.13770 | -117.25546 | 3595 ft | 246 kts | 281° |
| 2026-04-24 02:04 | 33.14118 | -117.27544 | 3596 ft | 246 kts | 281° |
| 2026-04-24 02:04 | 33.14641 | -117.29481 | 3594 ft | 244 kts | 296° |
| 2026-04-24 02:05 | 33.15772 | -117.30929 | 3581 ft | 241 kts | 328° |
| 2026-04-24 02:05 | 33.17346 | -117.31429 | 3582 ft | 240 kts | 359° |
| 2026-04-24 02:05 | 33.18990 | -117.31154 | 3586 ft | 236 kts | 11° |
| 2026-04-24 02:05 | 33.20517 | -117.30746 | 3591 ft | 217 kts | 12° |
| 2026-04-24 02:06 | 33.21996 | -117.30358 | 3583 ft | 216 kts | 11° |
| 2026-04-24 02:06 | 33.23441 | -117.29991 | 3578 ft | 208 kts | 11° |
| 2026-04-24 02:06 | 33.24809 | -117.29508 | 3574 ft | 204 kts | 28° |
| 2026-04-24 02:06 | 33.25765 | -117.28297 | 3587 ft | 203 kts | 65° |
| 2026-04-24 02:07 | 33.26117 | -117.26679 | 3583 ft | 201 kts | 81° |
| 2026-04-24 02:07 | 33.26333 | -117.25031 | 3582 ft | 201 kts | 82° |
| 2026-04-24 02:07 | 33.26555 | -117.23386 | 3583 ft | 200 kts | 82° |
| 2026-04-24 02:07 | 33.26788 | -117.21745 | 3581 ft | 200 kts | 81° |
| 2026-04-24 02:08 | 33.27026 | -117.20101 | 3587 ft | 201 kts | 81° |
| 2026-04-24 02:08 | 33.27269 | -117.18457 | 3583 ft | 201 kts | 81° |
| 2026-04-24 02:08 | 33.27512 | -117.16815 | 3578 ft | 200 kts | 81° |
| 2026-04-24 02:08 | 33.27752 | -117.15222 | 3576 ft | 195 kts | 81° |
| 2026-04-24 02:09 | 33.27993 | -117.13634 | 3577 ft | 193 kts | 81° |
| 2026-04-24 02:09 | 33.28238 | -117.12044 | 3575 ft | 192 kts | 81° |
| 2026-04-24 02:09 | 33.28472 | -117.10501 | 3571 ft | 191 kts | 82° |
| 2026-04-24 02:09 | 33.28349 | -117.08958 | 3570 ft | 187 kts | 112° |
| 2026-04-24 02:10 | 33.27537 | -117.07809 | 3565 ft | 183 kts | 150° |
| 2026-04-24 02:10 | 33.26384 | -117.07176 | 3572 ft | 183 kts | 159° |
| 2026-04-24 02:10 | 33.25194 | -117.06631 | 3578 ft | 183 kts | 162° |
| 2026-04-24 02:10 | 33.23981 | -117.06194 | 3574 ft | 182 kts | 165° |
| 2026-04-24 02:11 | 33.22760 | -117.05792 | 3585 ft | 182 kts | 166° |
| 2026-04-24 02:11 | 33.21529 | -117.05398 | 3584 ft | 183 kts | 166° |
| 2026-04-24 02:11 | 33.20293 | -117.05010 | 3590 ft | 184 kts | 166° |
| 2026-04-24 02:11 | 33.19052 | -117.04623 | 3594 ft | 184 kts | 166° |
| 2026-04-24 02:12 | 33.17815 | -117.04237 | 3595 ft | 184 kts | 166° |
| 2026-04-24 02:12 | 33.16570 | -117.03873 | 3595 ft | 184 kts | 173° |
| 2026-04-24 02:12 | 33.15349 | -117.04202 | 3588 ft | 184 kts | 214° |
| 2026-04-24 02:12 | 33.14631 | -117.05430 | 3592 ft | 185 kts | 255° |
| 2026-04-24 02:13 | 33.14687 | -117.06957 | 3593 ft | 186 kts | 280° |
| 2026-04-24 02:13 | 33.14977 | -117.08462 | 3593 ft | 186 kts | 282° |
| 2026-04-24 02:13 | 33.15267 | -117.09967 | 3598 ft | 187 kts | 282° |
| 2026-04-24 02:13 | 33.15547 | -117.11480 | 3589 ft | 187 kts | 281° |
| 2026-04-24 02:14 | 33.15702 | -117.13006 | 3593 ft | 185 kts | 260° |
| 2026-04-24 02:14 | 33.15229 | -117.14423 | 3593 ft | 184 kts | 245° |
| 2026-04-24 02:14 | 33.14775 | -117.15855 | 3595 ft | 185 kts | 253° |
| 2026-04-24 02:14 | 33.14492 | -117.17348 | 3591 ft | 185 kts | 258° |
| 2026-04-24 02:15 | 33.14240 | -117.18854 | 3567 ft | 186 kts | 258° |
| 2026-04-24 02:15 | 33.13984 | -117.20437 | 3294 ft | 192 kts | 258° |
| 2026-04-24 02:15 | 33.13742 | -117.21963 | 3414 ft | 183 kts | 258° |
| 2026-04-24 02:15 | 33.13503 | -117.23434 | 3533 ft | 179 kts | 258° |
| 2026-04-24 02:16 | 33.13261 | -117.24888 | 3583 ft | 180 kts | 258° |
| 2026-04-24 02:16 | 33.13016 | -117.26343 | 3584 ft | 182 kts | 258° |
| 2026-04-24 02:16 | 33.12765 | -117.27825 | 3583 ft | 183 kts | 258° |
| 2026-04-24 02:16 | 33.12510 | -117.29314 | 3587 ft | 183 kts | 258° |
| 2026-04-24 02:17 | 33.12254 | -117.30806 | 3589 ft | 184 kts | 258° |
| 2026-04-24 02:17 | 33.11994 | -117.32299 | 3589 ft | 184 kts | 258° |
| 2026-04-24 02:17 | 33.11733 | -117.33797 | 3588 ft | 184 kts | 258° |
| 2026-04-24 02:17 | 33.11469 | -117.35291 | 3587 ft | 184 kts | 258° |
| 2026-04-24 02:18 | 33.11208 | -117.36782 | 3592 ft | 184 kts | 258° |
| 2026-04-24 02:18 | 33.10944 | -117.38272 | 3591 ft | 184 kts | 258° |
| 2026-04-24 02:18 | 33.10680 | -117.39765 | 3588 ft | 184 kts | 258° |
| 2026-04-24 02:18 | 33.10415 | -117.41257 | 3589 ft | 184 kts | 258° |
| 2026-04-24 02:19 | 33.10151 | -117.42748 | 3590 ft | 183 kts | 258° |
| 2026-04-24 02:19 | 33.09891 | -117.44217 | 3589 ft | 183 kts | 258° |
| 2026-04-24 02:19 | 33.09627 | -117.45701 | 3586 ft | 183 kts | 258° |
| 2026-04-24 02:19 | 33.09363 | -117.47192 | 3590 ft | 184 kts | 258° |
| 2026-04-24 02:20 | 33.09098 | -117.48683 | 3589 ft | 184 kts | 258° |
| 2026-04-24 02:20 | 33.08833 | -117.50174 | 3585 ft | 184 kts | 258° |
| 2026-04-24 02:20 | 33.08568 | -117.51662 | 3590 ft | 183 kts | 258° |
| 2026-04-24 02:20 | 33.08302 | -117.53150 | 3583 ft | 183 kts | 258° |
| 2026-04-24 02:21 | 33.08126 | -117.54136 | 3591 ft | 183 kts | 258° |
| 2026-04-24 02:21 | 33.07854 | -117.55644 | 3585 ft | 184 kts | 258° |
| 2026-04-24 02:21 | 33.07527 | -117.57114 | 3587 ft | 183 kts | 244° |
| 2026-04-24 02:21 | 33.06627 | -117.58135 | 3584 ft | 190 kts | 204° |
| 2026-04-24 02:22 | 33.05265 | -117.58219 | 3603 ft | 203 kts | 165° |
| 2026-04-24 02:22 | 33.04118 | -117.57269 | 3633 ft | 210 kts | 127° |
| 2026-04-24 02:22 | 33.03578 | -117.55657 | 3676 ft | 212 kts | 102° |
| 2026-04-24 02:22 | 33.03306 | -117.53912 | 3738 ft | 217 kts | 100° |
| 2026-04-24 02:23 | 33.03042 | -117.52127 | 3796 ft | 219 kts | 100° |
| 2026-04-24 02:23 | 33.02769 | -117.50333 | 3859 ft | 221 kts | 101° |
| 2026-04-24 02:23 | 33.02489 | -117.48527 | 3932 ft | 221 kts | 101° |
| 2026-04-24 02:23 | 33.02207 | -117.46723 | 3987 ft | 222 kts | 101° |
| 2026-04-24 02:24 | 33.01921 | -117.44915 | 4049 ft | 222 kts | 101° |
| 2026-04-24 02:24 | 33.01635 | -117.43106 | 4111 ft | 222 kts | 101° |
| 2026-04-24 02:24 | 33.01348 | -117.41292 | 4180 ft | 222 kts | 101° |
| 2026-04-24 02:24 | 33.01062 | -117.39480 | 4247 ft | 223 kts | 101° |
| 2026-04-24 02:25 | 33.00775 | -117.37663 | 4311 ft | 223 kts | 101° |
| 2026-04-24 02:25 | 33.00491 | -117.35871 | 4370 ft | 223 kts | 101° |
| 2026-04-24 02:25 | 33.00200 | -117.34031 | 4444 ft | 223 kts | 101° |
| 2026-04-24 02:25 | 32.99916 | -117.32235 | 4485 ft | 224 kts | 101° |
| 2026-04-24 02:26 | 32.99638 | -117.30479 | 4909 ft | 210 kts | 101° |
| 2026-04-24 02:26 | 32.99357 | -117.28714 | 4848 ft | 222 kts | 101° |
| 2026-04-24 02:26 | 32.99072 | -117.26888 | 4847 ft | 226 kts | 101° |
| 2026-04-24 02:26 | 32.98786 | -117.25034 | 4835 ft | 229 kts | 101° |
| 2026-04-24 02:27 | 32.98497 | -117.23169 | 4838 ft | 229 kts | 101° |
| 2026-04-24 02:27 | 32.98209 | -117.21297 | 4841 ft | 230 kts | 101° |
| 2026-04-24 02:27 | 32.97922 | -117.19424 | 4847 ft | 230 kts | 101° |
| 2026-04-24 02:27 | 32.97634 | -117.17546 | 4840 ft | 231 kts | 101° |